Time;durP1;ratioP1;P1;durP2;ratioP2;P2;SDS_P1;SDS_P2;PMS_P1;PMS_P2;Temp;Humidity;BMP_temperature;BMP_pressure;BME280_temperature;BME280_humidity;BME280_pressure;Samples;Min_cycle;Max_cycle;Signal;HPM_P1;HPM_P2
2023/07/14 00:00:17;;;;;;;2.20;1.93;;;;;17.20;97163.00;;;;5002093;28;20265;-70
2023/07/14 00:03:07;;;;;;;2.67;2.40;;;;;17.20;97159.00;;;;5001258;28;20225;-69
2023/07/14 00:05:56;;;;;;;3.10;2.80;;;;;17.20;97163.00;;;;5008374;28;20218;-69
2023/07/14 00:08:45;;;;;;;2.50;2.30;;;;;16.90;97156.00;;;;4997659;28;20202;-69
2023/07/14 00:11:35;;;;;;;2.77;2.27;;;;;16.60;97152.00;;;;5000011;28;20206;-66
2023/07/14 00:14:25;;;;;;;2.83;2.63;;;;;16.40;97150.00;;;;5000745;28;20202;-72
2023/07/14 00:17:14;;;;;;;2.83;2.20;;;;;16.60;97162.00;;;;5003746;28;20198;-66
2023/07/14 00:20:11;;;;;;;2.57;2.37;;;;;16.40;97154.00;;;;5002942;28;20222;-65
2023/07/14 00:23:00;;;;;;;4.03;2.70;;;;;16.40;97138.00;;;;4989184;28;20203;-71
2023/07/14 00:25:49;;;;;;;3.90;3.47;;;;;16.80;97151.00;;;;5000656;28;20679;-68
2023/07/14 00:28:40;;;;;;;4.77;3.77;;;;;17.00;97145.00;;;;5007066;28;20212;-67
2023/07/14 00:31:29;;;;;;;5.17;3.47;;;;;17.00;97152.00;;;;4999383;28;20694;-68
2023/07/14 00:34:18;;;;;;;3.53;3.23;;;;;16.80;97149.00;;;;4999881;28;20204;-69
2023/07/14 00:37:07;;;;;;;5.90;3.33;;;;;16.70;97149.00;;;;5000736;28;20634;-70
2023/07/14 00:39:56;;;;;;;4.60;3.30;;;;;17.00;97160.00;;;;5007546;28;20226;-70
2023/07/14 00:42:46;;;;;;;2.90;2.70;;;;;16.90;97163.00;;;;4999414;28;20208;-69
2023/07/14 00:45:37;;;;;;;2.67;2.47;;;;;16.90;97155.00;;;;4997840;28;20205;-71
2023/07/14 00:48:27;;;;;;;3.60;2.47;;;;;16.70;97171.00;;;;4989077;28;20211;-68
2023/07/14 00:51:18;;;;;;;4.63;3.17;;;;;17.00;97161.00;;;;5002867;28;20202;-69
2023/07/14 00:54:10;;;;;;;6.43;3.40;;;;;17.30;97166.00;;;;5003686;28;20217;-69
2023/07/14 00:57:00;;;;;;;4.87;3.13;;;;;17.40;97166.00;;;;4993825;28;20218;-69
2023/07/14 00:59:49;;;;;;;4.07;2.93;;;;;17.40;97167.00;;;;5007917;28;20242;-69
2023/07/14 01:02:40;;;;;;;4.07;3.13;;;;;17.40;97169.00;;;;4991773;28;20202;-69
2023/07/14 01:05:29;;;;;;;3.40;3.10;;;;;17.40;97172.00;;;;4984101;28;20279;-69
2023/07/14 01:08:18;;;;;;;2.90;2.70;;;;;17.40;97165.00;;;;4985985;28;20205;-69
2023/07/14 01:11:07;;;;;;;6.13;3.20;;;;;17.40;97173.00;;;;4982550;28;20689;-69
2023/07/14 01:13:57;;;;;;;4.93;3.30;;;;;17.00;97179.00;;;;4983384;28;20201;-69
2023/07/14 01:16:50;;;;;;;6.47;2.73;;;;;16.90;97186.00;;;;4985581;28;20242;-70
2023/07/14 01:19:45;;;;;;;2.73;2.47;;;;;16.90;97186.00;;;;4983759;28;20222;-69
2023/07/14 01:22:42;;;;;;;2.80;2.13;;;;;16.70;97184.00;;;;4986562;28;20205;-69
2023/07/14 01:25:43;;;;;;;3.90;2.10;;;;;16.60;97182.00;;;;4985085;28;20754;-70
2023/07/14 01:28:33;;;;;;;8.63;4.03;;;;;16.40;97178.00;;;;4983328;28;20205;-69
2023/07/14 01:31:24;;;;;;;5.37;2.63;;;;;16.60;97172.00;;;;4988617;28;20206;-69
2023/07/14 01:34:14;;;;;;;3.97;3.57;;;;;16.70;97182.00;;;;4998851;28;20226;-69
2023/07/14 01:37:03;;;;;;;3.00;2.80;;;;;16.30;97174.00;;;;5012574;28;20247;-68
2023/07/14 01:39:53;;;;;;;3.90;3.50;;;;;16.10;97182.00;;;;5011085;28;20281;-68
2023/07/14 01:42:44;;;;;;;5.03;3.30;;;;;16.20;97183.00;;;;5012087;28;20210;-69
2023/07/14 01:45:40;;;;;;;3.37;3.00;;;;;16.40;97195.00;;;;5009434;28;20873;-71
2023/07/14 01:48:32;;;;;;;4.10;2.73;;;;;16.20;97188.00;;;;5009899;28;20194;-70
2023/07/14 01:51:21;;;;;;;4.17;3.00;;;;;16.40;97186.00;;;;5012176;28;20221;-70
2023/07/14 01:54:21;;;;;;;4.40;3.90;;;;;16.50;97183.00;;;;5002491;28;20209;-70
2023/07/14 01:57:13;;;;;;;3.77;3.40;;;;;16.70;97187.00;;;;5002917;28;20226;-71
2023/07/14 02:00:05;;;;;;;3.67;3.37;;;;;16.90;97194.00;;;;5011160;28;20221;-71
2023/07/14 02:02:55;;;;;;;4.53;3.67;;;;;16.90;97198.00;;;;5011947;28;20206;-70
2023/07/14 02:05:44;;;;;;;3.30;3.00;;;;;16.60;97196.00;;;;5003593;28;20208;-72
2023/07/14 02:08:34;;;;;;;3.27;2.97;;;;;16.60;97201.00;;;;4999432;28;20206;-70
2023/07/14 02:11:24;;;;;;;3.10;2.70;;;;;16.40;97202.00;;;;5004671;28;20213;-70
2023/07/14 02:14:17;;;;;;;2.90;2.70;;;;;16.20;97202.00;;;;5002741;28;20202;-70
2023/07/14 02:17:24;;;;;;;3.43;3.07;;;;;16.10;97197.00;;;;5011557;28;20689;-66
2023/07/14 02:20:20;;;;;;;4.73;3.17;;;;;16.70;97198.00;;;;5002956;28;20388;-72
2023/07/14 02:23:14;;;;;;;6.13;3.73;;;;;16.40;97198.00;;;;4997213;28;20202;-69
2023/07/14 02:26:07;;;;;;;4.33;3.67;;;;;16.30;97193.00;;;;5011704;28;20210;-70
2023/07/14 02:28:57;;;;;;;3.73;3.33;;;;;16.50;97194.00;;;;5011403;28;20205;-70
2023/07/14 02:31:51;;;;;;;4.33;3.70;;;;;16.70;97196.00;;;;4987670;28;20234;-70
2023/07/14 02:34:44;;;;;;;5.73;3.10;;;;;16.90;97194.00;;;;4991416;28;20198;-71
2023/07/14 02:38:04;;;;;;;8.63;3.87;;;;;16.90;97205.00;;;;4995812;28;20234;-71
2023/07/14 02:40:55;;;;;;;6.83;3.73;;;;;16.90;97208.00;;;;4990362;28;20257;-71
2023/07/14 02:43:45;;;;;;;3.37;2.97;;;;;16.60;97213.00;;;;5000761;28;20570;-70
2023/07/14 02:46:38;;;;;;;3.47;3.17;;;;;17.00;97217.00;;;;5001294;28;20225;-71
2023/07/14 02:49:27;;;;;;;5.40;4.90;;;;;17.00;97218.00;;;;4992398;28;20230;-71
2023/07/14 02:52:16;;;;;;;4.67;3.37;;;;;17.10;97223.00;;;;4996436;28;20214;-71
2023/07/14 02:55:07;;;;;;;5.67;3.70;;;;;17.20;97226.00;;;;4992281;28;20594;-71
2023/07/14 02:57:56;;;;;;;4.63;4.23;;;;;17.20;97227.00;;;;4994700;28;20244;-71
2023/07/14 03:00:46;;;;;;;4.27;3.87;;;;;17.10;97230.00;;;;5007771;28;20226;-71
2023/07/14 03:03:37;;;;;;;5.07;3.77;;;;;17.10;97217.00;;;;5001039;28;20283;-71
2023/07/14 03:06:27;;;;;;;5.97;4.53;;;;;17.10;97216.00;;;;4993569;28;20206;-72
2023/07/14 03:09:16;;;;;;;4.33;3.60;;;;;17.10;97209.00;;;;5005582;28;20218;-71
2023/07/14 03:12:07;;;;;;;4.30;3.83;;;;;17.20;97221.00;;;;5002032;28;20240;-71
2023/07/14 03:14:56;;;;;;;4.07;3.73;;;;;17.40;97213.00;;;;4991182;28;20206;-71
2023/07/14 03:17:46;;;;;;;4.70;4.30;;;;;17.30;97222.00;;;;4999585;28;20237;-71
2023/07/14 03:20:35;;;;;;;4.13;3.73;;;;;17.10;97217.00;;;;4999138;28;20222;-71
2023/07/14 03:23:24;;;;;;;4.07;3.57;;;;;17.00;97215.00;;;;5002273;28;20206;-71
2023/07/14 03:26:13;;;;;;;3.50;3.20;;;;;17.00;97216.00;;;;5004514;28;20205;-71
2023/07/14 03:29:03;;;;;;;5.83;3.63;;;;;17.20;97219.00;;;;5004408;28;20712;-71
2023/07/14 03:31:52;;;;;;;3.53;3.20;;;;;17.10;97220.00;;;;4999822;28;20202;-71
2023/07/14 03:34:42;;;;;;;3.50;3.20;;;;;17.00;97220.00;;;;5007557;28;20584;-71
2023/07/14 03:37:31;;;;;;;3.97;3.63;;;;;16.70;97221.00;;;;4999977;28;20322;-66
2023/07/14 03:40:20;;;;;;;4.70;3.30;;;;;16.90;97237.00;;;;5000034;28;20256;-67
2023/07/14 03:43:09;;;;;;;6.43;3.60;;;;;16.80;97237.00;;;;5008787;28;20302;-67
2023/07/14 03:45:59;;;;;;;4.00;3.70;;;;;16.70;97234.00;;;;4992004;28;20294;-67
2023/07/14 03:48:49;;;;;;;7.47;3.40;;;;;16.70;97230.00;;;;5006093;28;20197;-69
2023/07/14 03:51:38;;;;;;;3.67;3.33;;;;;16.90;97231.00;;;;4997922;28;20232;-68
2023/07/14 03:54:27;;;;;;;3.77;3.40;;;;;17.10;97246.00;;;;4998271;28;20706;-68
2023/07/14 03:57:16;;;;;;;4.43;3.97;;;;;17.30;97247.00;;;;4996806;28;20210;-68
2023/07/14 04:00:12;;;;;;;4.77;4.07;;;;;17.30;97248.00;;;;5008196;28;20222;-68
2023/07/14 04:03:03;;;;;;;4.33;3.37;;;;;17.30;97249.00;;;;5003159;28;20214;-68
2023/07/14 04:05:52;;;;;;;5.17;3.53;;;;;17.20;97239.00;;;;5003754;28;20249;-68
2023/07/14 04:08:43;;;;;;;4.93;4.27;;;;;17.30;97234.00;;;;5004505;28;20619;-68
2023/07/14 04:11:34;;;;;;;4.37;3.97;;;;;17.40;97235.00;;;;4995862;28;20719;-68
2023/07/14 04:14:23;;;;;;;3.97;3.30;;;;;17.10;97233.00;;;;5002118;28;20210;-68
2023/07/14 04:17:12;;;;;;;4.73;3.33;;;;;17.10;97231.00;;;;5004562;28;20206;-68
2023/07/14 04:20:02;;;;;;;6.40;3.40;;;;;16.90;97224.00;;;;4995375;28;20227;-68
2023/07/14 04:22:51;;;;;;;3.63;3.13;;;;;17.00;97227.00;;;;4983143;28;20211;-67
2023/07/14 04:25:40;;;;;;;2.70;2.50;;;;;17.10;97226.00;;;;5007284;28;20206;-68
2023/07/14 04:28:29;;;;;;;4.00;3.03;;;;;17.30;97226.00;;;;5006462;28;20194;-67
2023/07/14 04:31:19;;;;;;;2.80;2.60;;;;;17.30;97218.00;;;;5003796;28;20202;-67
2023/07/14 04:34:08;;;;;;;3.93;3.13;;;;;17.30;97226.00;;;;5014594;28;20198;-68
2023/07/14 04:36:58;;;;;;;3.07;2.83;;;;;17.50;97242.00;;;;5016126;28;20205;-68
2023/07/14 04:39:48;;;;;;;4.13;2.97;;;;;17.60;97230.00;;;;5015435;28;20221;-68
2023/07/14 04:42:37;;;;;;;5.13;3.40;;;;;17.60;97219.00;;;;5015736;28;20209;-68
2023/07/14 04:45:26;;;;;;;4.70;2.83;;;;;17.60;97229.00;;;;5013950;28;20198;-68
2023/07/14 04:48:17;;;;;;;5.43;3.20;;;;;17.80;97218.00;;;;5015068;28;20224;-68
2023/07/14 04:51:06;;;;;;;4.70;3.13;;;;;17.80;97219.00;;;;5003529;28;20228;-68
2023/07/14 04:53:56;;;;;;;3.10;2.90;;;;;17.70;97219.00;;;;5016214;28;20712;-68
2023/07/14 04:56:46;;;;;;;3.73;3.00;;;;;17.60;97224.00;;;;5015524;28;20198;-67
2023/07/14 04:59:35;;;;;;;3.27;2.97;;;;;17.70;97223.00;;;;5014856;28;20240;-68
2023/07/14 05:02:24;;;;;;;4.90;3.27;;;;;18.10;97232.00;;;;5015887;28;20252;-68
2023/07/14 05:05:15;;;;;;;3.87;3.50;;;;;18.10;97229.00;;;;5015222;28;20717;-68
2023/07/14 05:08:04;;;;;;;5.23;4.43;;;;;18.10;97232.00;;;;5015857;28;20209;-67
2023/07/14 05:10:55;;;;;;;6.10;4.27;;;;;17.90;97231.00;;;;5015052;28;20230;-68
2023/07/14 05:13:44;;;;;;;4.80;4.03;;;;;18.10;97229.00;;;;5014765;28;20205;-68
2023/07/14 05:16:33;;;;;;;4.60;3.43;;;;;18.50;97248.00;;;;5015380;28;20229;-67
2023/07/14 05:19:22;;;;;;;4.33;3.10;;;;;18.70;97242.00;;;;5015613;28;20758;-67
2023/07/14 05:22:11;;;;;;;6.30;4.43;;;;;18.90;97238.00;;;;5004008;28;20211;-68
2023/07/14 05:25:00;;;;;;;5.77;4.23;;;;;19.10;97239.00;;;;5003331;28;20209;-67
2023/07/14 05:27:51;;;;;;;4.63;4.20;;;;;19.30;97245.00;;;;5015659;28;20900;-68
2023/07/14 05:30:40;;;;;;;7.40;4.57;;;;;19.60;97240.00;;;;4979289;23;20240;-86
2023/07/14 05:33:29;;;;;;;6.10;4.90;;;;;19.70;97247.00;;;;4942229;29;20651;-84
2023/07/14 05:36:18;;;;;;;7.23;4.60;;;;;19.70;97247.00;;;;4950032;29;20598;-86
2023/07/14 05:39:08;;;;;;;4.63;3.57;;;;;19.80;97241.00;;;;4944791;28;20239;-85
2023/07/14 05:41:58;;;;;;;4.37;3.60;;;;;20.00;97257.00;;;;4954499;28;20220;-86
2023/07/14 05:44:48;;;;;;;4.47;4.10;;;;;20.10;97244.00;;;;4945615;28;20299;-87
2023/07/14 05:47:39;;;;;;;4.40;3.80;;;;;20.00;97249.00;;;;4950901;28;20259;-85
2023/07/14 05:50:28;;;;;;;3.77;3.40;;;;;20.30;97246.00;;;;4934029;29;20269;-84
2023/07/14 05:53:18;;;;;;;3.70;3.40;;;;;20.50;97247.00;;;;4940903;29;20580;-86
2023/07/14 05:56:07;;;;;;;5.17;3.40;;;;;20.70;97244.00;;;;4952236;29;20230;-86
2023/07/14 05:58:57;;;;;;;4.40;3.33;;;;;20.80;97241.00;;;;4941615;28;20252;-86
2023/07/14 06:01:47;;;;;;;3.93;3.53;;;;;20.90;97243.00;;;;4942616;28;20705;-86
2023/07/14 06:04:36;;;;;;;5.53;3.47;;;;;21.00;97240.00;;;;4935938;29;20678;-87
2023/07/14 06:07:25;;;;;;;3.93;3.53;;;;;21.20;97257.00;;;;4950693;29;20208;-86
2023/07/14 06:10:16;;;;;;;5.37;3.77;;;;;21.30;97252.00;;;;4936168;28;20241;-85
2023/07/14 06:13:06;;;;;;;3.43;2.90;;;;;21.30;97261.00;;;;4950003;29;20701;-87
2023/07/14 06:15:55;;;;;;;3.33;3.03;;;;;21.50;97264.00;;;;4939866;29;20663;-86
2023/07/14 06:18:45;;;;;;;2.80;2.60;;;;;21.50;97260.00;;;;4934642;29;20252;-86
2023/07/14 06:21:34;;;;;;;2.60;2.40;;;;;21.30;97249.00;;;;4936799;29;20224;-87
2023/07/14 06:24:24;;;;;;;2.83;2.63;;;;;21.40;97255.00;;;;4938277;29;20211;-86
2023/07/14 06:27:13;;;;;;;4.10;3.77;;;;;21.70;97254.00;;;;4932630;29;20204;-87
2023/07/14 06:30:04;;;;;;;4.83;4.43;;;;;21.90;97243.00;;;;4929688;29;20229;-86
2023/07/14 06:32:53;;;;;;;3.17;2.60;;;;;22.00;97246.00;;;;4931979;29;20275;-88
2023/07/14 06:35:43;;;;;;;3.07;2.63;;;;;22.20;97246.00;;;;4931930;29;20357;-87
2023/07/14 06:38:32;;;;;;;3.70;2.67;;;;;22.40;97235.00;;;;4927484;29;20213;-88
2023/07/14 06:41:21;;;;;;;3.37;2.77;;;;;22.40;97237.00;;;;4931292;29;20229;-87
2023/07/14 06:44:11;;;;;;;3.67;2.80;;;;;22.50;97236.00;;;;4934425;28;20204;-89
2023/07/14 06:47:08;;;;;;;4.50;2.80;;;;;22.40;97235.00;;;;4930122;29;20212;-87
2023/07/14 06:49:57;;;;;;;2.80;2.60;;;;;22.70;97239.00;;;;4929235;29;20201;-87
2023/07/14 06:52:48;;;;;;;3.00;2.50;;;;;22.80;97234.00;;;;4930152;29;20307;-88
2023/07/14 06:55:38;;;;;;;2.53;2.27;;;;;22.90;97235.00;;;;4931951;29;20205;-86
2023/07/14 06:58:27;;;;;;;3.47;2.80;;;;;23.00;97230.00;;;;4932521;28;20197;-87
2023/07/14 07:01:17;;;;;;;5.40;2.67;;;;;23.10;97227.00;;;;4926302;29;20228;-88
2023/07/14 07:04:06;;;;;;;4.23;2.40;;;;;23.30;97231.00;;;;4932328;29;20279;-87
2023/07/14 07:06:55;;;;;;;3.97;3.00;;;;;23.30;97228.00;;;;4930558;28;20200;-86
2023/07/14 07:09:46;;;;;;;2.70;2.30;;;;;23.50;97228.00;;;;4929303;29;20208;-87
2023/07/14 07:12:35;;;;;;;4.90;3.13;;;;;23.40;97218.00;;;;4928407;29;20717;-88
2023/07/14 07:15:24;;;;;;;3.27;2.40;;;;;23.30;97227.00;;;;4929321;29;20204;-86
2023/07/14 07:18:13;;;;;;;2.50;2.30;;;;;23.60;97223.00;;;;4928573;29;20209;-87
2023/07/14 07:21:03;;;;;;;4.23;2.37;;;;;23.90;97219.00;;;;4931150;29;20247;-87
2023/07/14 07:23:52;;;;;;;2.47;2.27;;;;;24.10;97229.00;;;;4929738;28;20205;-86
2023/07/14 07:26:42;;;;;;;3.23;2.73;;;;;24.20;97223.00;;;;4927618;29;20866;-88
2023/07/14 07:29:32;;;;;;;4.33;2.77;;;;;24.30;97222.00;;;;4926816;28;20220;-87
2023/07/14 07:32:24;;;;;;;3.53;2.87;;;;;24.40;97224.00;;;;4934288;29;20371;-89
2023/07/14 07:35:13;;;;;;;3.07;2.87;;;;;24.60;97226.00;;;;4946291;29;20209;-89
2023/07/14 07:38:02;;;;;;;4.90;2.50;;;;;24.70;97224.00;;;;4933079;29;20601;-87
2023/07/14 07:40:51;;;;;;;2.80;2.40;;;;;24.90;97227.00;;;;4934489;29;20236;-89
2023/07/14 07:43:42;;;;;;;6.93;3.30;;;;;24.80;97213.00;;;;4935583;29;20677;-88
2023/07/14 07:46:32;;;;;;;3.73;2.37;;;;;25.00;97213.00;;;;4937766;29;20236;-89
2023/07/14 07:49:21;;;;;;;5.03;2.47;;;;;25.20;97212.00;;;;4942009;29;20255;-87
2023/07/14 07:52:12;;;;;;;5.57;2.33;;;;;25.40;97216.00;;;;4941134;29;20235;-88
2023/07/14 07:55:05;;;;;;;9.57;4.07;;;;;25.50;97209.00;;;;4939569;28;20293;-88
2023/07/14 07:57:56;;;;;;;5.13;2.60;;;;;25.60;97209.00;;;;4919548;29;20213;-88
2023/07/14 08:00:46;;;;;;;9.70;3.37;;;;;25.70;97209.00;;;;4933187;29;20224;-88
2023/07/14 08:03:36;;;;;;;3.50;2.40;;;;;25.80;97210.00;;;;4941217;29;20212;-89
2023/07/14 08:06:27;;;;;;;3.13;2.50;;;;;25.80;97190.00;;;;4936545;29;20215;-87
2023/07/14 08:09:16;;;;;;;3.27;2.87;;;;;25.90;97204.00;;;;4936360;29;20657;-87
2023/07/14 08:12:06;;;;;;;2.23;2.03;;;;;26.00;97205.00;;;;4936695;28;20314;-86
2023/07/14 08:14:57;;;;;;;3.23;2.60;;;;;26.10;97201.00;;;;4936726;29;20253;-88
2023/07/14 08:17:57;;;;;;;4.23;3.07;;;;;26.00;97194.00;;;;4936377;29;20236;-89
2023/07/14 08:20:46;;;;;;;3.87;2.60;;;;;25.90;97194.00;;;;4935747;28;20303;-88
2023/07/14 08:23:36;;;;;;;3.17;2.30;;;;;26.10;97197.00;;;;4941753;28;20214;-88
2023/07/14 08:26:26;;;;;;;4.63;3.10;;;;;26.30;97193.00;;;;4939801;29;20694;-87
2023/07/14 08:29:15;;;;;;;3.13;2.80;;;;;26.40;97197.00;;;;4929806;28;20357;-87
2023/07/14 08:32:04;;;;;;;4.93;2.80;;;;;26.70;97192.00;;;;4936128;28;20341;-87
2023/07/14 08:34:55;;;;;;;2.93;2.33;;;;;26.90;97196.00;;;;4936396;29;20208;-88
2023/07/14 08:37:45;;;;;;;3.13;2.73;;;;;27.10;97184.00;;;;4935609;29;20207;-88
2023/07/14 08:40:40;;;;;;;4.93;2.63;;;;;27.00;97185.00;;;;4933914;29;20229;-87
2023/07/14 08:43:37;;;;;;;11.70;4.90;;;;;27.00;97194.00;;;;4933396;29;20213;-87
2023/07/14 08:46:34;;;;;;;5.77;3.17;;;;;27.00;97189.00;;;;4934345;29;20261;-87
2023/07/14 08:49:26;;;;;;;3.80;2.80;;;;;27.30;97188.00;;;;4933270;29;20631;-87
2023/07/14 08:52:22;;;;;;;6.23;3.07;;;;;27.40;97181.00;;;;4939926;29;20233;-88
2023/07/14 08:55:15;;;;;;;3.77;3.20;;;;;27.40;97185.00;;;;4931884;29;20212;-87
2023/07/14 08:58:07;;;;;;;3.73;2.20;;;;;27.60;97195.00;;;;4920673;29;20209;-87
2023/07/14 09:01:08;;;;;;;4.23;3.23;;;;;27.90;97181.00;;;;4925822;29;20227;-87
2023/07/14 09:04:03;;;;;;;2.57;2.37;;;;;28.20;97183.00;;;;4930524;29;20287;-87
2023/07/14 09:06:52;;;;;;;2.47;2.27;;;;;27.40;97187.00;;;;4935660;29;20213;-87
2023/07/14 09:09:43;;;;;;;2.03;1.83;;;;;28.00;97193.00;;;;4941171;28;20235;-87
2023/07/14 09:12:39;;;;;;;2.70;1.83;;;;;28.50;97197.00;;;;4935430;28;20290;-86
2023/07/14 09:15:28;;;;;;;4.30;1.73;;;;;28.50;97198.00;;;;4930471;29;20747;-87
2023/07/14 09:18:39;;;;;;;2.23;2.03;;;;;28.70;97195.00;;;;4932765;29;20202;-87
2023/07/14 09:21:36;;;;;;;2.23;1.83;;;;;28.90;97189.00;;;;4937368;28;20281;-87
2023/07/14 09:24:32;;;;;;;4.18;2.60;;;;;28.90;97193.00;;;;4925886;28;20980;-87
2023/07/14 09:27:27;;;;;;;2.45;2.25;;;;;28.80;97185.00;;;;4928463;29;20411;-87
2023/07/14 09:30:19;;;;;;;2.67;2.05;;;;;28.80;97187.00;;;;4921984;29;20514;-87
2023/07/14 09:33:11;;;;;;;2.20;1.77;;;;;29.10;97180.00;;;;4943599;29;20702;-87
2023/07/14 09:36:00;;;;;;;2.47;1.87;;;;;29.40;97182.00;;;;4931113;28;20215;-87
2023/07/14 09:38:52;;;;;;;2.17;1.93;;;;;28.60;97177.00;;;;4933980;29;20214;-87
2023/07/14 09:41:41;;;;;;;3.53;2.67;;;;;29.20;97173.00;;;;4934900;29;20226;-87
2023/07/14 09:44:32;;;;;;;2.77;1.87;;;;;29.10;97170.00;;;;4932641;29;20412;-87
2023/07/14 09:47:21;;;;;;;2.60;2.33;;;;;29.50;97165.00;;;;4936443;29;20209;-87
2023/07/14 09:50:15;;;;;;;3.73;2.10;;;;;29.40;97172.00;;;;4928797;29;20804;-87
2023/07/14 09:53:06;;;;;;;6.60;2.30;;;;;28.90;97171.00;;;;4936857;28;20285;-86
2023/07/14 09:55:58;;;;;;;11.80;4.27;;;;;30.00;97165.00;;;;4934852;28;20206;-86
2023/07/14 09:58:53;;;;;;;2.33;2.13;;;;;29.40;97162.00;;;;4932429;29;20268;-85
2023/07/14 10:01:51;;;;;;;8.33;2.90;;;;;30.10;97161.00;;;;4930432;29;20610;-87
2023/07/14 10:04:40;;;;;;;18.77;5.80;;;;;30.00;97155.00;;;;4932073;29;20221;-86
2023/07/14 10:07:40;;;;;;;15.73;4.30;;;;;30.70;97147.00;;;;4931425;29;20900;-87
2023/07/14 10:10:30;;;;;;;2.63;1.73;;;;;29.80;97150.00;;;;4934721;29;20234;-87
2023/07/14 10:13:24;;;;;;;2.47;1.73;;;;;29.40;97146.00;;;;4934596;29;20213;-89
2023/07/14 10:16:16;;;;;;;4.03;1.90;;;;;30.20;97141.00;;;;4939536;29;20216;-87
2023/07/14 10:19:13;;;;;;;2.20;1.70;;;;;30.20;97134.00;;;;4927559;29;20213;-86
2023/07/14 10:22:05;;;;;;;2.77;1.93;;;;;30.70;97135.00;;;;4933250;29;20722;-87
2023/07/14 10:24:58;;;;;;;3.93;1.80;;;;;30.90;97138.00;;;;4938920;29;20210;-85
2023/07/14 10:27:58;;;;;;;4.43;1.33;;;;;31.40;97126.00;;;;4938980;28;20198;-86
2023/07/14 10:30:54;;;;;;;4.43;1.80;;;;;31.60;97120.00;;;;4931360;29;20248;-87
2023/07/14 10:33:49;;;;;;;2.77;1.87;;;;;32.00;97117.00;;;;4940959;28;20284;-88
2023/07/14 10:36:41;;;;;;;2.27;2.07;;;;;31.90;97115.00;;;;4944409;28;20234;-87
2023/07/14 10:39:36;;;;;;;1.70;1.43;;;;;30.40;97115.00;;;;4941856;28;20213;-89
2023/07/14 10:42:33;;;;;;;3.13;1.43;;;;;30.30;97113.00;;;;4944032;28;20228;-90
2023/07/14 10:45:23;;;;;;;2.30;2.00;;;;;31.40;97114.00;;;;4941260;28;20211;-89
2023/07/14 10:48:15;;;;;;;5.33;1.77;;;;;31.80;97115.00;;;;4937130;29;20207;-89
2023/07/14 10:51:10;;;;;;;2.17;1.90;;;;;31.70;97106.00;;;;4934628;28;20632;-88
2023/07/14 10:54:04;;;;;;;1.87;1.77;;;;;31.70;97096.00;;;;4933189;29;20297;-88
2023/07/14 10:56:59;;;;;;;2.23;1.47;;;;;31.90;97093.00;;;;4933081;29;20218;-88
2023/07/14 10:59:53;;;;;;;2.80;2.07;;;;;32.60;97090.00;;;;4933879;28;20575;-89
2023/07/14 11:02:46;;;;;;;1.67;1.57;;;;;31.70;97088.00;;;;4933620;29;20208;-90
2023/07/14 11:05:35;;;;;;;2.97;1.87;;;;;32.40;97090.00;;;;4941075;29;20233;-89
2023/07/14 11:08:26;;;;;;;1.80;1.70;;;;;31.80;97079.00;;;;4941935;28;20586;-87
2023/07/14 11:11:22;;;;;;;2.30;1.60;;;;;31.40;97080.00;;;;4934445;28;20239;-89
2023/07/14 11:14:22;;;;;;;2.63;1.50;;;;;31.60;97074.00;;;;4933547;29;20217;-88
2023/07/14 11:17:16;;;;;;;1.77;1.63;;;;;31.10;97065.00;;;;4928448;29;20262;-88
2023/07/14 11:20:13;;;;;;;3.07;1.50;;;;;29.70;97061.00;;;;4940086;29;20206;-90
2023/07/14 11:23:20;;;;;;;1.90;1.50;;;;;29.70;97052.00;;;;4939685;28;20220;-87
2023/07/14 11:26:17;;;;;;;2.20;1.90;;;;;29.50;97062.00;;;;4940783;29;20238;-89
2023/07/14 11:29:10;;;;;;;2.10;1.40;;;;;30.90;97056.00;;;;4932600;29;20234;-88
2023/07/14 11:32:01;;;;;;;1.60;1.50;;;;;31.10;97058.00;;;;4931571;29;20734;-87
2023/07/14 11:34:57;;;;;;;1.57;1.40;;;;;30.30;97055.00;;;;4937768;29;20602;-87
2023/07/14 11:37:55;;;;;;;3.07;1.43;;;;;29.80;97051.00;;;;4937208;29;20700;-87
2023/07/14 11:40:49;;;;;;;1.53;1.23;;;;;29.70;97048.00;;;;4930559;29;20282;-89
2023/07/14 11:43:40;;;;;;;2.47;1.50;;;;;29.80;97051.00;;;;4939088;28;20742;-87
2023/07/14 11:46:30;;;;;;;1.87;1.27;;;;;30.00;97042.00;;;;4933355;28;20224;-87
2023/07/14 11:49:27;;;;;;;1.30;1.20;;;;;30.30;97035.00;;;;4935330;28;20222;-88
2023/07/14 11:52:23;;;;;;;3.13;1.57;;;;;31.30;97044.00;;;;4930536;29;20278;-89
2023/07/14 11:55:23;;;;;;;2.03;1.60;;;;;32.70;97048.00;;;;4926659;29;20219;-88
2023/07/14 11:58:18;;;;;;;3.53;1.53;;;;;32.80;97042.00;;;;4933900;29;20696;-88
2023/07/14 12:01:17;;;;;;;2.43;1.37;;;;;32.40;97047.00;;;;4931342;29;20287;-87
2023/07/14 12:04:25;;;;;;;6.90;2.60;;;;;33.50;97040.00;;;;4930832;28;20208;-87
2023/07/14 12:07:18;;;;;;;4.78;1.70;;;;;33.80;97037.00;;;;4932256;28;20204;-89
2023/07/14 12:10:12;;;;;;;2.65;2.17;;;;;34.20;97035.00;;;;4933083;29;20666;-88
2023/07/14 12:13:31;;;;;;;4.25;1.42;;;;;32.30;97029.00;;;;4938431;28;20227;-87
2023/07/14 12:16:24;;;;;;;2.13;1.70;;;;;31.30;97028.00;;;;4930160;28;20590;-88
2023/07/14 12:19:25;;;;;;;3.55;1.90;;;;;33.10;97029.00;;;;4933140;29;20203;-88
2023/07/14 12:22:14;;;;;;;2.35;1.73;;;;;32.30;97030.00;;;;4927488;29;20231;-88
2023/07/14 12:25:10;;;;;;;2.38;1.40;;;;;32.30;97018.00;;;;4928268;29;20202;-87
2023/07/14 12:28:01;;;;;;;1.83;1.60;;;;;32.10;97014.00;;;;4928944;29;20279;-87
2023/07/14 12:30:52;;;;;;;2.05;1.58;;;;;32.60;97006.00;;;;4923925;29;20294;-87
2023/07/14 12:33:43;;;;;;;1.98;1.33;;;;;31.00;97005.00;;;;4930188;29;20228;-86
2023/07/14 12:36:32;;;;;;;2.00;1.58;;;;;32.50;97023.00;;;;4932078;29;20216;-87
2023/07/14 12:39:22;;;;;;;2.22;1.60;;;;;31.00;97000.00;;;;4925450;29;20234;-92
2023/07/14 12:42:16;;;;;;;1.92;1.55;;;;;32.70;96991.00;;;;4933174;29;20317;-91
2023/07/14 12:45:08;;;;;;;2.40;1.35;;;;;32.70;96999.00;;;;4931578;29;20345;-87
2023/07/14 12:48:02;;;;;;;3.67;1.58;;;;;33.50;96996.00;;;;4935386;28;20207;-90
2023/07/14 12:50:54;;;;;;;2.25;1.65;;;;;35.60;96986.00;;;;4933831;29;20295;-90
2023/07/14 12:53:43;;;;;;;2.47;1.40;;;;;36.10;96999.00;;;;4939907;29;20227;-89
2023/07/14 12:56:32;;;;;;;;;;;;;36.10;96991.00;;;;4932446;28;20060;-85
2023/07/14 12:59:22;;;;;;;;;;;;;35.80;96984.00;;;;4943573;29;19953;-87
2023/07/14 13:02:11;;;;;;;;;;;;;35.50;96975.00;;;;4945787;28;19923;-88
2023/07/14 13:05:00;;;;;;;;;;;;;32.70;96969.00;;;;4943623;28;19923;-89
2023/07/14 13:07:51;;;;;;;;;;;;;32.20;96963.00;;;;4945018;29;19926;-85
2023/07/14 13:10:41;;;;;;;;;;;;;33.00;96973.00;;;;4933415;29;19931;-86
2023/07/14 13:13:31;;;;;;;;;;;;;32.50;96982.00;;;;4940310;28;19927;-87
2023/07/14 13:16:20;;;;;;;;;;;;;34.20;96969.00;;;;4934179;29;19930;-87
2023/07/14 13:19:19;;;;;;;;;;;;;35.60;96975.00;;;;4936305;29;19927;-88
2023/07/14 13:22:16;;;;;;;;;;;;;36.50;96991.00;;;;4935607;28;19986;-87
2023/07/14 13:25:08;;;;;;;;;;;;;35.80;96985.00;;;;4938348;28;19923;-88
2023/07/14 13:27:57;;;;;;;;;;;;;34.20;96976.00;;;;4937177;28;19977;-90
2023/07/14 13:30:47;;;;;;;;;;;;;33.30;96988.00;;;;4937422;28;19923;-93
2023/07/14 13:33:36;;;;;;;1.80;1.42;;;;;33.50;96971.00;;;;4942957;28;20025;-89
2023/07/14 13:36:29;;;;;;;2.00;1.77;;;;;33.50;96973.00;;;;4935018;29;20208;-91
2023/07/14 13:39:27;;;;;;;1.58;1.30;;;;;32.80;96993.00;;;;4939305;28;20196;-90
2023/07/14 13:42:25;;;;;;;4.47;1.77;;;;;31.50;96973.00;;;;4934598;29;20291;-87
2023/07/14 13:45:47;;;;;;;2.80;1.45;;;;;31.30;96938.00;;;;4938053;29;20213;-89
2023/07/14 13:52:57;;;;;;;2.90;1.50;;;;;32.50;96947.00;;;;4937736;29;20202;-90
2023/07/14 13:55:47;;;;;;;1.75;1.50;;;;;34.50;96955.00;;;;4951131;28;20210;-89
2023/07/14 13:58:37;;;;;;;2.65;2.05;;;;;35.40;96963.00;;;;4937972;29;20848;-90
2023/07/14 14:01:28;;;;;;;1.65;1.50;;;;;36.10;96954.00;;;;4933456;29;20228;-87
2023/07/14 14:04:18;;;;;;;2.80;1.77;;;;;35.10;96947.00;;;;4938792;29;20228;-88
2023/07/14 14:07:09;;;;;;;4.68;1.92;;;;;36.30;96959.00;;;;4932396;28;20298;-87
2023/07/14 14:09:58;;;;;;;3.83;1.83;;;;;36.10;96954.00;;;;4937571;29;20229;-89
2023/07/14 14:12:48;;;;;;;1.80;1.42;;;;;36.60;96943.00;;;;4939124;29;20556;-88
2023/07/14 14:16:00;;;;;;;2.35;1.20;;;;;36.90;96954.00;;;;4946393;29;20262;-88
2023/07/14 14:18:51;;;;;;;2.60;1.75;;;;;37.30;96945.00;;;;4933177;29;20209;-88
2023/07/14 14:21:40;;;;;;;;;;;;;37.70;96930.00;;;;4933978;29;20429;-86
2023/07/14 14:24:29;;;;;;;;;;;;;38.20;96915.00;;;;4933656;29;19926;-88
2023/07/14 14:27:34;;;;;;;;;;;;;38.90;96913.00;;;;4940341;28;19923;-86